Time;durP1;ratioP1;P1;durP2;ratioP2;P2;SDS_P1;SDS_P2;PMS_P1;PMS_P2;Temp;Humidity;BMP_temperature;BMP_pressure;BME280_temperature;BME280_humidity;BME280_pressure;Samples;Min_cycle;Max_cycle;Signal;HPM_P1;HPM_P2
2024/01/11 00:01:05;;;;;;;35.35;21.58;;;;;;;;;;5137738;27;20062;-53
2024/01/11 00:03:33;;;;;;;41.55;22.92;;;;;;;;;;5131681;27;20062;-54
2024/01/11 00:06:01;;;;;;;38.45;22.20;;;;;;;;;;5139620;27;20050;-53
2024/01/11 00:08:28;;;;;;;40.58;23.45;;;;;;;;;;5138516;27;20506;-54
2024/01/11 00:10:55;;;;;;;43.25;23.20;;;;;;;;;;5130683;27;20051;-53
2024/01/11 00:13:22;;;;;;;39.15;23.17;;;;;;;;;;5130582;27;20050;-54
2024/01/11 00:15:49;;;;;;;38.25;21.45;;;;;;;;;;5133809;27;20480;-51
2024/01/11 00:18:17;;;;;;;37.72;21.48;;;;;;;;;;5133826;27;20052;-55
2024/01/11 00:20:45;;;;;;;38.63;21.65;;;;;;;;;;5133020;27;20055;-53
2024/01/11 00:23:12;;;;;;;36.17;21.23;;;;;;;;;;5132527;27;20047;-54
2024/01/11 00:25:39;;;;;;;39.25;22.92;;;;;;;;;;5136387;27;20381;-53
2024/01/11 00:28:06;;;;;;;41.22;22.80;;;;;;;;;;5154326;27;20042;-51
2024/01/11 00:30:33;;;;;;;40.53;22.55;;;;;;;;;;5137182;27;20066;-54
2024/01/11 00:33:00;;;;;;;41.33;23.48;;;;;;;;;;5133188;27;20491;-55
2024/01/11 00:35:28;;;;;;;37.45;22.05;;;;;;;;;;5148692;27;20050;-55
2024/01/11 00:37:56;;;;;;;39.88;21.92;;;;;;;;;;5151135;27;20046;-54
2024/01/11 00:40:23;;;;;;;39.50;22.85;;;;;;;;;;5133451;27;20051;-55
2024/01/11 00:42:49;;;;;;;44.65;23.52;;;;;;;;;;5133308;27;20054;-54
2024/01/11 00:45:16;;;;;;;40.90;23.70;;;;;;;;;;5133986;27;20047;-53
2024/01/11 00:47:43;;;;;;;37.38;21.90;;;;;;;;;;5153368;27;20399;-54
2024/01/11 00:50:10;;;;;;;39.70;23.02;;;;;;;;;;5136589;27;20074;-53
2024/01/11 00:52:38;;;;;;;38.90;22.40;;;;;;;;;;5143857;27;20054;-52
2024/01/11 00:55:07;;;;;;;39.75;22.95;;;;;;;;;;5166972;27;20046;-54
2024/01/11 00:57:33;;;;;;;38.08;22.45;;;;;;;;;;5174457;27;20057;-52
2024/01/11 01:00:00;;;;;;;41.45;23.83;;;;;;;;;;5162357;27;20490;-54
2024/01/11 01:02:27;;;;;;;38.50;22.48;;;;;;;;;;5152465;27;20404;-55
2024/01/11 01:04:54;;;;;;;43.38;24.58;;;;;;;;;;5150372;27;20369;-55
2024/01/11 01:07:20;;;;;;;35.78;22.27;;;;;;;;;;5152136;27;20059;-53
2024/01/11 01:09:47;;;;;;;39.92;23.75;;;;;;;;;;5149901;27;20434;-54
2024/01/11 01:12:15;;;;;;;42.88;23.92;;;;;;;;;;5147284;27;20046;-52
2024/01/11 01:14:45;;;;;;;38.80;22.70;;;;;;;;;;5174340;27;20372;-52
2024/01/11 01:17:12;;;;;;;40.67;23.85;;;;;;;;;;5156993;27;20058;-53
2024/01/11 01:19:39;;;;;;;37.67;22.25;;;;;;;;;;5157211;27;20050;-56
2024/01/11 01:22:05;;;;;;;39.55;21.70;;;;;;;;;;5158056;27;20062;-53
2024/01/11 01:24:32;;;;;;;39.17;22.90;;;;;;;;;;5176508;27;20054;-52
2024/01/11 01:27:00;;;;;;;38.40;22.30;;;;;;;;;;5160682;27;20061;-53
2024/01/11 01:29:28;;;;;;;41.13;23.98;;;;;;;;;;5154904;27;20042;-54
2024/01/11 01:31:55;;;;;;;41.13;23.90;;;;;;;;;;5156872;27;20050;-52
2024/01/11 01:34:22;;;;;;;41.97;22.42;;;;;;;;;;5156092;27;20046;-54
2024/01/11 01:36:49;;;;;;;44.60;24.10;;;;;;;;;;5163444;27;20406;-52
2024/01/11 01:39:16;;;;;;;47.45;23.33;;;;;;;;;;5159242;27;20464;-55
2024/01/11 01:41:43;;;;;;;42.42;24.05;;;;;;;;;;5156980;27;20050;-54
2024/01/11 01:44:10;;;;;;;43.60;23.92;;;;;;;;;;5155300;27;20042;-54
2024/01/11 01:46:38;;;;;;;52.13;28.10;;;;;;;;;;5155197;27;20053;-53
2024/01/11 01:49:05;;;;;;;51.30;27.42;;;;;;;;;;5154861;27;20061;-54
2024/01/11 01:51:33;;;;;;;44.78;24.67;;;;;;;;;;5155565;27;20051;-54
2024/01/11 01:54:01;;;;;;;38.70;22.15;;;;;;;;;;5163725;27;20050;-55
2024/01/11 01:56:27;;;;;;;34.20;21.10;;;;;;;;;;5157186;27;20403;-56
2024/01/11 01:58:55;;;;;;;37.33;22.58;;;;;;;;;;5141618;27;20484;-55
2024/01/11 02:01:21;;;;;;;43.33;24.33;;;;;;;;;;5160014;27;20058;-55
2024/01/11 02:03:50;;;;;;;39.08;22.38;;;;;;;;;;5162307;27;20046;-54
2024/01/11 02:06:17;;;;;;;35.83;20.85;;;;;;;;;;5165855;27;20061;-54
2024/01/11 02:08:44;;;;;;;36.97;20.88;;;;;;;;;;5176165;27;20051;-53
2024/01/11 02:11:11;;;;;;;33.80;21.05;;;;;;;;;;5177184;27;20057;-52
2024/01/11 02:13:38;;;;;;;36.85;21.30;;;;;;;;;;5170903;27;20046;-53
2024/01/11 02:16:05;;;;;;;41.45;23.17;;;;;;;;;;5155750;27;20404;-55
2024/01/11 02:18:33;;;;;;;33.78;20.45;;;;;;;;;;5154567;27;20059;-53
2024/01/11 02:21:02;;;;;;;38.28;21.35;;;;;;;;;;5160752;27;20050;-54
2024/01/11 02:23:30;;;;;;;40.30;23.50;;;;;;;;;;5166445;27;20059;-53
2024/01/11 02:25:58;;;;;;;39.30;22.80;;;;;;;;;;5156771;27;20046;-54
2024/01/11 02:28:25;;;;;;;43.22;23.85;;;;;;;;;;5165661;27;20050;-54
2024/01/11 02:30:51;;;;;;;39.92;22.98;;;;;;;;;;5170145;27;20502;-54
2024/01/11 02:33:18;;;;;;;41.45;23.75;;;;;;;;;;5155391;27;20042;-54
2024/01/11 02:35:45;;;;;;;41.97;23.55;;;;;;;;;;5160037;27;20399;-55
2024/01/11 02:38:12;;;;;;;41.83;23.48;;;;;;;;;;5176403;27;20046;-54
2024/01/11 02:40:39;;;;;;;39.22;23.33;;;;;;;;;;5173832;27;20061;-52
2024/01/11 02:43:11;;;;;;;39.92;22.25;;;;;;;;;;5175244;27;20050;-55
2024/01/11 02:45:37;;;;;;;44.58;23.95;;;;;;;;;;5154730;27;20054;-55
2024/01/11 02:48:04;;;;;;;40.38;23.92;;;;;;;;;;5167589;27;20046;-54
2024/01/11 02:50:31;;;;;;;37.97;20.88;;;;;;;;;;5162742;27;20051;-54
2024/01/11 02:52:58;;;;;;;39.95;22.38;;;;;;;;;;5156257;27;20054;-54
2024/01/11 02:55:25;;;;;;;39.58;24.08;;;;;;;;;;5168817;27;20057;-54
2024/01/11 02:57:52;;;;;;;38.95;22.08;;;;;;;;;;5155370;27;20057;-52
2024/01/11 03:00:20;;;;;;;35.78;21.88;;;;;;;;;;5158211;27;20054;-53
2024/01/11 03:02:47;;;;;;;43.42;22.73;;;;;;;;;;5156687;27;20070;-55
2024/01/11 03:05:14;;;;;;;34.22;20.42;;;;;;;;;;5153996;27;20168;-54
2024/01/11 03:07:40;;;;;;;38.03;21.35;;;;;;;;;;5153120;27;20054;-53
2024/01/11 03:10:07;;;;;;;38.63;21.63;;;;;;;;;;5154527;27;20065;-52
2024/01/11 03:12:34;;;;;;;40.55;23.08;;;;;;;;;;5156366;27;20054;-54
2024/01/11 03:15:01;;;;;;;35.72;21.67;;;;;;;;;;5155157;27;20476;-55
2024/01/11 03:17:29;;;;;;;43.47;22.70;;;;;;;;;;5154935;27;20062;-54
2024/01/11 03:19:56;;;;;;;38.40;22.92;;;;;;;;;;5172815;27;20042;-54
2024/01/11 03:22:23;;;;;;;35.00;21.58;;;;;;;;;;5168269;27;20054;-52
2024/01/11 03:24:50;;;;;;;38.30;21.77;;;;;;;;;;5155473;27;20120;-53
2024/01/11 03:27:16;;;;;;;40.50;22.33;;;;;;;;;;5153943;27;20050;-56
2024/01/11 03:29:43;;;;;;;38.90;21.65;;;;;;;;;;5154660;27;20050;-53
2024/01/11 03:32:12;;;;;;;38.20;22.23;;;;;;;;;;5162804;27;20055;-53
2024/01/11 03:34:40;;;;;;;37.55;21.30;;;;;;;;;;5155568;27;20043;-52
2024/01/11 03:37:07;;;;;;;35.72;20.65;;;;;;;;;;5154614;27;20537;-52
2024/01/11 03:39:34;;;;;;;37.50;21.50;;;;;;;;;;5154250;27;20050;-55
2024/01/11 03:42:03;;;;;;;37.03;21.83;;;;;;;;;;5153183;27;20054;-53
2024/01/11 03:44:31;;;;;;;41.80;23.60;;;;;;;;;;5154714;27;20054;-53
2024/01/11 03:46:57;;;;;;;42.67;22.80;;;;;;;;;;5170586;27;20050;-55
2024/01/11 03:49:24;;;;;;;35.30;21.85;;;;;;;;;;5173560;27;20046;-53
2024/01/11 03:51:52;;;;;;;41.80;22.63;;;;;;;;;;5164667;27;20057;-53
2024/01/11 03:54:19;;;;;;;37.47;21.30;;;;;;;;;;5160234;27;20058;-56
2024/01/11 03:56:46;;;;;;;37.72;20.88;;;;;;;;;;5153608;27;20068;-54
2024/01/11 03:59:13;;;;;;;38.22;20.67;;;;;;;;;;5154710;27;20051;-55
2024/01/11 04:01:40;;;;;;;37.13;20.80;;;;;;;;;;5156990;27;20058;-55
2024/01/11 04:04:07;;;;;;;36.05;20.55;;;;;;;;;;5175059;27;20050;-53
2024/01/11 04:06:34;;;;;;;36.08;21.17;;;;;;;;;;5164812;27;20053;-52
2024/01/11 04:09:02;;;;;;;34.88;20.00;;;;;;;;;;5163122;27;20050;-52
2024/01/11 04:11:29;;;;;;;35.90;21.17;;;;;;;;;;5165221;27;20059;-53
2024/01/11 04:13:56;;;;;;;36.00;20.98;;;;;;;;;;5153171;27;20066;-53
2024/01/11 04:16:23;;;;;;;41.33;22.27;;;;;;;;;;5147409;27;20050;-53
2024/01/11 04:18:50;;;;;;;36.35;20.65;;;;;;;;;;5150614;27;20043;-53
2024/01/11 04:21:28;;;;;;;35.15;20.10;;;;;;;;;;5161884;27;20054;-53
2024/01/11 04:23:55;;;;;;;36.90;21.55;;;;;;;;;;5169189;27;20050;-52
2024/01/11 04:26:23;;;;;;;35.72;21.73;;;;;;;;;;5159485;27;20058;-54
2024/01/11 04:28:50;;;;;;;39.17;21.50;;;;;;;;;;5154413;27;20514;-55
2024/01/11 04:31:17;;;;;;;36.67;20.02;;;;;;;;;;5158196;27;20057;-53
2024/01/11 04:33:44;;;;;;;38.30;21.52;;;;;;;;;;5154170;27;20069;-54
2024/01/11 04:36:11;;;;;;;36.42;20.83;;;;;;;;;;5162440;27;20057;-53
2024/01/11 04:38:38;;;;;;;35.13;19.55;;;;;;;;;;5156868;27;20043;-55
2024/01/11 04:41:08;;;;;;;36.13;20.02;;;;;;;;;;5153401;27;20047;-55
2024/01/11 04:43:37;;;;;;;35.88;21.02;;;;;;;;;;5155048;27;20070;-53
2024/01/11 04:46:04;;;;;;;38.50;20.52;;;;;;;;;;5163558;27;20407;-55
2024/01/11 04:48:31;;;;;;;35.58;20.98;;;;;;;;;;5171718;27;20584;-53
2024/01/11 04:50:58;;;;;;;33.15;19.33;;;;;;;;;;5158187;27;20380;-55
2024/01/11 04:53:25;;;;;;;32.78;19.92;;;;;;;;;;5156247;27;20507;-55
2024/01/11 04:55:51;;;;;;;40.80;20.52;;;;;;;;;;5156786;27;20047;-53
2024/01/11 04:58:18;;;;;;;36.45;20.95;;;;;;;;;;5168468;27;20046;-50
2024/01/11 05:00:46;;;;;;;35.88;20.90;;;;;;;;;;5170219;27;20049;-54
2024/01/11 05:03:13;;;;;;;30.35;18.75;;;;;;;;;;5155257;27;20054;-55
2024/01/11 05:05:40;;;;;;;35.40;19.98;;;;;;;;;;5140402;27;20047;-55
2024/01/11 05:08:07;;;;;;;36.13;20.50;;;;;;;;;;5155966;27;20063;-54
2024/01/11 05:10:33;;;;;;;35.28;21.20;;;;;;;;;;5159370;27;20046;-51
2024/01/11 05:13:00;;;;;;;36.65;19.75;;;;;;;;;;5157755;27;20488;-53
2024/01/11 05:15:27;;;;;;;33.35;19.30;;;;;;;;;;5154233;27;20774;-54
2024/01/11 05:17:56;;;;;;;42.35;22.15;;;;;;;;;;5154573;27;20054;-55
2024/01/11 05:20:23;;;;;;;38.47;20.05;;;;;;;;;;5156190;27;20054;-52
2024/01/11 05:22:50;;;;;;;37.20;20.55;;;;;;;;;;5154854;27;20054;-53
2024/01/11 05:25:17;;;;;;;37.22;21.17;;;;;;;;;;5155749;27;20449;-54
2024/01/11 05:27:43;;;;;;;36.40;22.10;;;;;;;;;;5156147;27;20423;-55
2024/01/11 05:30:11;;;;;;;40.97;22.33;;;;;;;;;;5156270;27;20042;-53
2024/01/11 05:32:37;;;;;;;36.75;20.77;;;;;;;;;;5153934;27;20047;-54
2024/01/11 05:35:11;;;;;;;33.08;19.50;;;;;;;;;;5156175;27;20062;-53
2024/01/11 05:37:38;;;;;;;39.22;21.08;;;;;;;;;;5167659;27;20046;-54
2024/01/11 05:40:06;;;;;;;37.38;21.10;;;;;;;;;;5154247;27;20050;-52
2024/01/11 05:42:32;;;;;;;35.88;20.30;;;;;;;;;;5157607;27;20049;-53
2024/01/11 05:44:59;;;;;;;36.67;21.38;;;;;;;;;;5165310;27;20061;-54
2024/01/11 05:47:26;;;;;;;41.67;21.52;;;;;;;;;;5164087;27;20046;-53
2024/01/11 05:49:53;;;;;;;36.40;21.58;;;;;;;;;;5155612;27;20463;-54
2024/01/11 05:52:24;;;;;;;36.28;22.05;;;;;;;;;;5154882;27;20066;-55
2024/01/11 05:54:51;;;;;;;32.22;20.17;;;;;;;;;;5154598;27;20043;-54
2024/01/11 05:57:18;;;;;;;37.75;21.08;;;;;;;;;;5155115;27;20051;-52
2024/01/11 05:59:45;;;;;;;35.03;19.90;;;;;;;;;;5157678;27;20042;-53
2024/01/11 06:02:12;;;;;;;40.05;22.17;;;;;;;;;;5160753;27;20053;-52
2024/01/11 06:04:39;;;;;;;33.95;20.20;;;;;;;;;;5154378;27;20053;-52
2024/01/11 06:07:06;;;;;;;35.70;21.17;;;;;;;;;;5154281;27;20051;-53
2024/01/11 06:09:34;;;;;;;37.25;21.15;;;;;;;;;;5155614;27;20062;-52
2024/01/11 06:12:01;;;;;;;36.08;21.27;;;;;;;;;;5162945;27;20058;-52
2024/01/11 06:14:28;;;;;;;36.03;21.25;;;;;;;;;;5154691;27;20058;-51
2024/01/11 06:16:54;;;;;;;40.28;20.10;;;;;;;;;;5155337;27;20376;-52
2024/01/11 06:19:21;;;;;;;42.13;22.38;;;;;;;;;;5154835;27;20069;-53
2024/01/11 06:21:48;;;;;;;36.63;21.23;;;;;;;;;;5153172;27;20039;-52
2024/01/11 06:24:14;;;;;;;32.45;19.15;;;;;;;;;;5152780;27;20058;-50
2024/01/11 06:26:42;;;;;;;34.40;19.70;;;;;;;;;;5152526;27;20121;-50
2024/01/11 06:29:09;;;;;;;31.63;18.48;;;;;;;;;;5153945;27;20057;-51
2024/01/11 06:31:35;;;;;;;34.53;18.88;;;;;;;;;;5154799;27;20046;-50
2024/01/11 06:34:02;;;;;;;34.30;20.58;;;;;;;;;;5146359;27;20061;-53
2024/01/11 06:36:29;;;;;;;34.15;19.60;;;;;;;;;;5153074;27;20529;-51
2024/01/11 06:38:56;;;;;;;35.22;19.65;;;;;;;;;;5155127;27;20058;-52
2024/01/11 06:41:22;;;;;;;31.35;19.42;;;;;;;;;;5155538;27;20047;-53
2024/01/11 06:43:51;;;;;;;33.72;19.95;;;;;;;;;;5154279;27;20415;-51
2024/01/11 06:46:20;;;;;;;36.25;20.92;;;;;;;;;;5152798;27;20047;-50
2024/01/11 06:48:47;;;;;;;35.20;21.63;;;;;;;;;;5153133;27;20046;-52
2024/01/11 06:51:15;;;;;;;35.03;21.25;;;;;;;;;;5153408;27;20047;-51
2024/01/11 06:53:42;;;;;;;38.38;19.90;;;;;;;;;;5069015;27;2415731;-51
2024/01/11 06:56:14;;;;;;;36.75;21.02;;;;;;;;;;5154042;27;20058;-53
2024/01/11 06:58:41;;;;;;;36.35;20.77;;;;;;;;;;5153870;27;20058;-53
2024/01/11 07:01:09;;;;;;;38.78;20.77;;;;;;;;;;5159215;27;20042;-51
2024/01/11 07:03:36;;;;;;;36.03;20.95;;;;;;;;;;5147444;27;20411;-50
2024/01/11 07:06:03;;;;;;;36.70;20.48;;;;;;;;;;5152083;27;20619;-51
2024/01/11 07:08:30;;;;;;;35.53;21.20;;;;;;;;;;5154288;27;20058;-50
2024/01/11 07:10:57;;;;;;;34.63;20.60;;;;;;;;;;5155190;27;20042;-50
2024/01/11 07:13:24;;;;;;;35.30;21.15;;;;;;;;;;5153276;27;20069;-51
2024/01/11 07:15:51;;;;;;;35.13;20.13;;;;;;;;;;5153995;27;20053;-49
2024/01/11 07:18:19;;;;;;;33.33;19.95;;;;;;;;;;5153417;27;20058;-50
2024/01/11 07:20:47;;;;;;;36.50;20.30;;;;;;;;;;5153652;27;20042;-49
2024/01/11 07:23:14;;;;;;;33.92;18.98;;;;;;;;;;5153854;27;20386;-49
2024/01/11 07:25:41;;;;;;;41.42;22.60;;;;;;;;;;5155714;27;20058;-50
2024/01/11 07:28:08;;;;;;;38.38;19.75;;;;;;;;;;5154776;27;20058;-52
2024/01/11 07:30:35;;;;;;;35.83;19.83;;;;;;;;;;5151915;27;20043;-51
2024/01/11 07:33:02;;;;;;;34.95;19.80;;;;;;;;;;5154602;27;20054;-52
2024/01/11 07:35:32;;;;;;;33.85;18.88;;;;;;;;;;5154926;27;20463;-52
2024/01/11 07:37:59;;;;;;;36.78;19.45;;;;;;;;;;5154900;27;20479;-49
2024/01/11 07:40:26;;;;;;;33.05;20.55;;;;;;;;;;5154355;27;20054;-50
2024/01/11 07:42:53;;;;;;;34.25;19.73;;;;;;;;;;5153015;27;20076;-50
2024/01/11 07:45:20;;;;;;;33.42;18.88;;;;;;;;;;5152294;27;20046;-49
2024/01/11 07:47:46;;;;;;;37.65;19.88;;;;;;;;;;5154622;27;20047;-52
2024/01/11 07:50:12;;;;;;;31.23;19.42;;;;;;;;;;5154420;27;20054;-52
2024/01/11 07:52:41;;;;;;;33.78;19.98;;;;;;;;;;5146348;27;20416;-51
2024/01/11 07:55:09;;;;;;;34.33;19.25;;;;;;;;;;5132400;27;20051;-51
2024/01/11 07:57:36;;;;;;;33.75;19.00;;;;;;;;;;5129986;27;20419;-52
2024/01/11 08:00:03;;;;;;;33.15;19.70;;;;;;;;;;5133444;27;20051;-51
2024/01/11 08:02:30;;;;;;;34.70;19.55;;;;;;;;;;5133693;27;20054;-50
2024/01/11 08:04:59;;;;;;;32.55;18.85;;;;;;;;;;5132776;27;20047;-50
2024/01/11 08:07:26;;;;;;;31.58;19.48;;;;;;;;;;5131982;27;20054;-50
2024/01/11 08:09:55;;;;;;;35.45;19.02;;;;;;;;;;5113284;28;20051;-51
2024/01/11 08:12:21;;;;;;;31.65;17.77;;;;;;;;;;5120195;27;20047;-49
2024/01/11 08:14:48;;;;;;;34.47;19.15;;;;;;;;;;5122835;27;20047;-49
2024/01/11 08:17:16;;;;;;;28.88;18.00;;;;;;;;;;5133567;27;20385;-50
2024/01/11 08:19:43;;;;;;;29.88;17.65;;;;;;;;;;5133730;27;20384;-50
2024/01/11 08:22:11;;;;;;;32.85;18.38;;;;;;;;;;5133396;27;20059;-49
2024/01/11 08:24:38;;;;;;;34.75;18.83;;;;;;;;;;5133008;27;20058;-49
2024/01/11 08:27:06;;;;;;;31.48;19.38;;;;;;;;;;5131467;27;20047;-50
2024/01/11 08:29:33;;;;;;;33.67;18.85;;;;;;;;;;5132597;27;20396;-52
2024/01/11 08:32:01;;;;;;;32.17;21.15;;;;;;;;;;5133491;28;20051;-51
2024/01/11 08:34:28;;;;;;;33.58;19.80;;;;;;;;;;5133654;27;20500;-52
2024/01/11 08:36:55;;;;;;;32.47;20.70;;;;;;;;;;5131331;27;20051;-49
2024/01/11 08:39:22;;;;;;;35.85;21.92;;;;;;;;;;5132999;27;20055;-51
2024/01/11 08:41:49;;;;;;;32.25;20.90;;;;;;;;;;5133502;28;20511;-51
2024/01/11 08:44:18;;;;;;;29.88;20.50;;;;;;;;;;5133235;27;20055;-52
2024/01/11 08:46:45;;;;;;;33.55;22.02;;;;;;;;;;5133439;28;20047;-52
2024/01/11 08:49:11;;;;;;;33.17;21.92;;;;;;;;;;5133487;28;20055;-52
2024/01/11 08:51:39;;;;;;;30.08;19.77;;;;;;;;;;5132998;28;20051;-51
2024/01/11 08:54:08;;;;;;;29.83;20.13;;;;;;;;;;5150992;27;20057;-53
2024/01/11 08:56:35;;;;;;;26.83;19.73;;;;;;;;;;5152334;27;20372;-50
2024/01/11 08:59:02;;;;;;;23.75;18.83;;;;;;;;;;5148400;27;20393;-50
2024/01/11 09:01:31;;;;;;;29.02;20.25;;;;;;;;;;5154093;27;20049;-54
2024/01/11 09:03:59;;;;;;;26.75;20.45;;;;;;;;;;5153715;27;20050;-54
2024/01/11 09:06:25;;;;;;;28.40;20.88;;;;;;;;;;5151817;27;20047;-50
2024/01/11 09:08:52;;;;;;;30.98;22.00;;;;;;;;;;5151862;27;20391;-52
2024/01/11 09:11:19;;;;;;;28.20;21.10;;;;;;;;;;5151502;27;20047;-49
2024/01/11 09:13:46;;;;;;;26.35;20.55;;;;;;;;;;5152771;27;20053;-50
2024/01/11 09:16:15;;;;;;;27.70;20.95;;;;;;;;;;5154204;27;20054;-53
2024/01/11 09:18:43;;;;;;;28.77;21.38;;;;;;;;;;5153307;27;20074;-54
2024/01/11 09:21:10;;;;;;;26.20;20.80;;;;;;;;;;5153283;27;20050;-50
2024/01/11 09:23:37;;;;;;;25.25;20.02;;;;;;;;;;5151807;27;20042;-53
2024/01/11 09:26:04;;;;;;;24.45;20.88;;;;;;;;;;5151848;27;20050;-53
2024/01/11 09:28:31;;;;;;;24.70;20.92;;;;;;;;;;5152895;27;20053;-53
2024/01/11 09:30:59;;;;;;;22.90;19.80;;;;;;;;;;5155338;27;20058;-55
2024/01/11 09:33:26;;;;;;;23.85;20.83;;;;;;;;;;5155487;27;20049;-54
2024/01/11 09:35:55;;;;;;;22.63;20.05;;;;;;;;;;5156996;27;20053;-54
2024/01/11 09:38:22;;;;;;;22.15;19.00;;;;;;;;;;5157538;27;20050;-53
2024/01/11 09:40:54;;;;;;;25.40;20.77;;;;;;;;;;5157165;27;20047;-53
2024/01/11 09:43:21;;;;;;;26.15;21.92;;;;;;;;;;5156868;27;20054;-52
2024/01/11 09:45:49;;;;;;;23.88;20.77;;;;;;;;;;5156828;27;20051;-52
2024/01/11 09:48:16;;;;;;;23.38;20.52;;;;;;;;;;5157221;27;20046;-56
2024/01/11 09:50:43;;;;;;;22.85;20.38;;;;;;;;;;5157205;27;20483;-55
2024/01/11 09:53:12;;;;;;;21.45;18.77;;;;;;;;;;5148432;27;20042;-55
2024/01/11 09:55:38;;;;;;;21.13;18.88;;;;;;;;;;5150721;27;20047;-55
2024/01/11 09:58:06;;;;;;;25.67;21.27;;;;;;;;;;5115742;27;20404;-55
2024/01/11 10:00:33;;;;;;;23.83;21.33;;;;;;;;;;5136133;27;20480;-55
2024/01/11 10:03:00;;;;;;;24.10;20.45;;;;;;;;;;5138761;27;20050;-54
2024/01/11 10:05:28;;;;;;;20.65;18.45;;;;;;;;;;5151437;27;20047;-56
2024/01/11 10:07:55;;;;;;;24.48;21.05;;;;;;;;;;5152741;27;20050;-55
2024/01/11 10:10:23;;;;;;;22.92;20.23;;;;;;;;;;5156586;27;20054;-54
2024/01/11 10:12:50;;;;;;;25.55;20.08;;;;;;;;;;5138890;27;20051;-54
2024/01/11 10:15:16;;;;;;;27.67;21.73;;;;;;;;;;5135827;27;20416;-55
2024/01/11 10:17:44;;;;;;;26.80;20.95;;;;;;;;;;5135589;27;20054;-54
2024/01/11 10:20:13;;;;;;;28.15;21.35;;;;;;;;;;5135233;27;20050;-54
2024/01/11 10:22:40;;;;;;;27.58;21.48;;;;;;;;;;5139985;27;20046;-53
2024/01/11 10:25:11;;;;;;;28.13;23.23;;;;;;;;;;5154688;27;20054;-55
2024/01/11 10:27:41;;;;;;;28.85;22.58;;;;;;;;;;5141483;27;20066;-54
2024/01/11 10:30:08;;;;;;;;;;;;;;;;;;5124015;27;20442;-54
2024/01/11 10:32:35;;;;;;;30.15;23.38;;;;;;;;;;5145039;27;19942;-54
2024/01/11 10:35:04;;;;;;;25.85;18.95;;;;;;;;;;5147943;27;20492;-53
2024/01/11 10:37:32;;;;;;;27.23;19.10;;;;;;;;;;5136999;27;20507;-55
2024/01/11 10:39:59;;;;;;;23.05;19.38;;;;;;;;;;5135766;27;20059;-53
2024/01/11 10:42:28;;;;;;;22.33;18.92;;;;;;;;;;5133843;27;20507;-55
2024/01/11 10:44:58;;;;;;;22.83;18.58;;;;;;;;;;5150433;27;20046;-55
2024/01/11 10:47:25;;;;;;;23.80;20.10;;;;;;;;;;5146797;27;20055;-56
2024/01/11 10:49:53;;;;;;;22.83;19.48;;;;;;;;;;5147179;27;20053;-57
2024/01/11 10:52:23;;;;;;;23.95;19.85;;;;;;;;;;5146680;27;20059;-56
2024/01/11 10:54:50;;;;;;;25.45;21.58;;;;;;;;;;5145669;27;20755;-55
2024/01/11 10:57:18;;;;;;;25.33;20.27;;;;;;;;;;5135181;27;20404;-55
2024/01/11 10:59:45;;;;;;;23.40;20.90;;;;;;;;;;5134990;27;20058;-55
2024/01/11 11:02:15;;;;;;;23.02;20.15;;;;;;;;;;5135112;27;20051;-55
2024/01/11 11:04:42;;;;;;;25.33;21.67;;;;;;;;;;5135127;27;20051;-55
2024/01/11 11:07:11;;;;;;;26.17;22.70;;;;;;;;;;5138353;27;20078;-56
2024/01/11 11:09:38;;;;;;;25.00;21.48;;;;;;;;;;5134862;27;20063;-56
2024/01/11 11:12:07;;;;;;;24.98;22.00;;;;;;;;;;5134612;27;20051;-55
2024/01/11 11:14:35;;;;;;;24.00;21.50;;;;;;;;;;5134884;27;20043;-56
2024/01/11 11:17:02;;;;;;;23.00;20.70;;;;;;;;;;5139840;27;20069;-57
2024/01/11 11:19:30;;;;;;;23.10;20.60;;;;;;;;;;5143515;27;20464;-54
2024/01/11 11:21:57;;;;;;;21.80;19.60;;;;;;;;;;5145192;27;20515;-55
2024/01/11 11:24:24;;;;;;;21.35;19.05;;;;;;;;;;5145369;27;20047;-56
2024/01/11 11:26:51;;;;;;;25.42;18.95;;;;;;;;;;5128715;27;20054;-54
2024/01/11 11:29:18;;;;;;;21.35;19.13;;;;;;;;;;5143572;27;20050;-56
2024/01/11 11:31:47;;;;;;;21.77;19.17;;;;;;;;;;5152211;27;20046;-55
2024/01/11 11:34:14;;;;;;;21.45;19.25;;;;;;;;;;5155298;27;20448;-54
2024/01/11 11:36:42;;;;;;;22.25;19.85;;;;;;;;;;5141240;27;20049;-52
2024/01/11 11:39:12;;;;;;;20.88;18.65;;;;;;;;;;5142263;27;20061;-54
2024/01/11 11:41:39;;;;;;;22.40;19.02;;;;;;;;;;5151621;27;20426;-55
2024/01/11 11:44:06;;;;;;;21.45;18.85;;;;;;;;;;5137029;27;20097;-53
2024/01/11 11:46:33;;;;;;;23.45;20.67;;;;;;;;;;5142904;27;20047;-55
2024/01/11 11:49:00;;;;;;;22.08;19.77;;;;;;;;;;5149812;27;20055;-55
2024/01/11 11:51:27;;;;;;;24.27;20.90;;;;;;;;;;5146689;27;20054;-57
2024/01/11 11:53:56;;;;;;;26.85;22.23;;;;;;;;;;5132982;27;20047;-56
2024/01/11 11:56:23;;;;;;;24.10;21.63;;;;;;;;;;5134584;27;20480;-56
2024/01/11 11:58:52;;;;;;;24.65;22.15;;;;;;;;;;5134248;27;20495;-56
2024/01/11 12:01:19;;;;;;;23.83;21.30;;;;;;;;;;5133804;27;20055;-55
2024/01/11 12:03:50;;;;;;;24.40;21.77;;;;;;;;;;5132200;27;20046;-56
2024/01/11 12:06:17;;;;;;;24.08;21.55;;;;;;;;;;5132352;27;20054;-56
2024/01/11 12:08:44;;;;;;;25.63;22.65;;;;;;;;;;5133205;27;20051;-57
2024/01/11 12:11:15;;;;;;;26.17;23.42;;;;;;;;;;5133722;27;20080;-56
2024/01/11 12:13:44;;;;;;;25.92;23.20;;;;;;;;;;5133885;27;20051;-55
2024/01/11 12:16:11;;;;;;;24.23;21.63;;;;;;;;;;5130074;27;20047;-57
2024/01/11 12:18:38;;;;;;;22.92;20.25;;;;;;;;;;5131258;27;20066;-55
2024/01/11 12:21:05;;;;;;;24.77;19.45;;;;;;;;;;5132621;27;20058;-55
2024/01/11 12:23:33;;;;;;;22.83;20.45;;;;;;;;;;5133449;27;20046;-55
2024/01/11 12:26:01;;;;;;;24.50;21.90;;;;;;;;;;5133165;27;20050;-53
2024/01/11 12:28:30;;;;;;;26.45;23.75;;;;;;;;;;5133913;27;20051;-54
2024/01/11 12:30:56;;;;;;;25.65;23.08;;;;;;;;;;5133341;27;20051;-57
2024/01/11 12:33:25;;;;;;;28.20;24.83;;;;;;;;;;5132709;27;20399;-56
2024/01/11 12:35:52;;;;;;;27.92;24.92;;;;;;;;;;5131378;27;20062;-54
2024/01/11 12:38:19;;;;;;;25.33;22.40;;;;;;;;;;5132631;27;20062;-56
2024/01/11 12:40:46;;;;;;;28.38;25.05;;;;;;;;;;5134070;27;20051;-55
2024/01/11 12:43:13;;;;;;;32.15;26.67;;;;;;;;;;5133745;27;20055;-55
2024/01/11 12:45:42;;;;;;;27.55;24.63;;;;;;;;;;5132457;27;20055;-53
2024/01/11 12:48:09;;;;;;;29.10;26.00;;;;;;;;;;5133566;27;20051;-54
2024/01/11 12:50:36;;;;;;;30.27;27.08;;;;;;;;;;5133641;27;20047;-54
2024/01/11 12:53:12;;;;;;;32.13;27.70;;;;;;;;;;5136034;27;20054;-54
2024/01/11 12:55:38;;;;;;;34.30;29.40;;;;;;;;;;5153898;27;20057;-58
2024/01/11 12:58:09;;;;;;;32.00;26.48;;;;;;;;;;5153635;27;20467;-55
2024/01/11 13:00:36;;;;;;;31.48;27.42;;;;;;;;;;5153538;27;20499;-56
2024/01/11 13:03:05;;;;;;;33.90;27.90;;;;;;;;;;5151234;27;20043;-54
2024/01/11 13:05:34;;;;;;;33.73;27.63;;;;;;;;;;5156552;27;20512;-55
2024/01/11 13:08:02;;;;;;;30.17;26.95;;;;;;;;;;5157167;27;21040;-56
2024/01/11 13:10:29;;;;;;;30.25;26.13;;;;;;;;;;5169903;27;20402;-55
2024/01/11 13:12:58;;;;;;;30.77;27.48;;;;;;;;;;5166536;27;20124;-56
2024/01/11 13:15:25;;;;;;;31.45;26.70;;;;;;;;;;5157776;27;20051;-56
2024/01/11 13:17:53;;;;;;;30.67;25.35;;;;;;;;;;5157196;27;20054;-55
2024/01/11 13:20:21;;;;;;;27.63;23.85;;;;;;;;;;5163051;27;20046;-56
2024/01/11 13:22:48;;;;;;;27.80;24.85;;;;;;;;;;5175951;27;20475;-56
2024/01/11 13:25:15;;;;;;;27.42;24.60;;;;;;;;;;5157199;27;20051;-55
2024/01/11 13:27:41;;;;;;;28.00;24.73;;;;;;;;;;5157671;27;20054;-56
2024/01/11 13:30:09;;;;;;;26.92;23.85;;;;;;;;;;5157762;27;20060;-55
2024/01/11 13:32:36;;;;;;;30.63;26.02;;;;;;;;;;5172541;27;20487;-54
2024/01/11 13:35:03;;;;;;;32.25;28.35;;;;;;;;;;5175962;27;20049;-55
2024/01/11 13:37:32;;;;;;;31.95;27.50;;;;;;;;;;5178109;27;20487;-55
2024/01/11 13:39:58;;;;;;;30.70;27.10;;;;;;;;;;5162058;27;20050;-50
2024/01/11 13:42:25;;;;;;;29.00;25.88;;;;;;;;;;5171291;27;20050;-53
2024/01/11 13:44:52;;;;;;;29.95;25.27;;;;;;;;;;5168791;27;20472;-56
2024/01/11 13:47:19;;;;;;;32.20;26.08;;;;;;;;;;5172224;27;20054;-54
2024/01/11 13:49:46;;;;;;;29.95;25.25;;;;;;;;;;5177988;27;20061;-56
2024/01/11 13:52:13;;;;;;;32.35;25.55;;;;;;;;;;5171729;27;20050;-56
2024/01/11 13:54:41;;;;;;;31.10;25.40;;;;;;;;;;5156814;27;20595;-56
2024/01/11 13:57:08;;;;;;;32.65;24.73;;;;;;;;;;5156851;27;20051;-56
2024/01/11 13:59:35;;;;;;;31.17;26.55;;;;;;;;;;5140392;27;20050;-57
2024/01/11 14:02:03;;;;;;;30.80;26.00;;;;;;;;;;5157379;27;20055;-56
2024/01/11 14:04:30;;;;;;;31.95;26.75;;;;;;;;;;5155851;27;20043;-56
2024/01/11 14:06:57;;;;;;;32.63;27.67;;;;;;;;;;5152968;27;20053;-54
2024/01/11 14:09:24;;;;;;;34.72;28.02;;;;;;;;;;5156518;27;20046;-57
2024/01/11 14:11:52;;;;;;;31.40;25.95;;;;;;;;;;5156886;27;20050;-55
2024/01/11 14:14:20;;;;;;;34.65;27.80;;;;;;;;;;5156625;27;20049;-55
2024/01/11 14:16:47;;;;;;;32.53;24.83;;;;;;;;;;5155778;27;20043;-55